Date,TemperatureHighF,TemperatureAvgF,TemperatureLowF,DewpointHighF,DewpointAvgF,DewpointLowF,HumidityHigh,HumidityAvg,HumidityLow,PressureMaxIn,PressureMinIn,WindSpeedMaxMPH,WindSpeedAvgMPH,GustSpeedMaxMPH,PrecipitationSumIn
2013-3-1,30,28,27,-100,-100,-100,0,0,100,0.00,40.00,0,-999,0,0.00
2013-3-2,29,26,19,-100,-100,-100,0,0,100,0.00,40.00,0,-999,0,0.00
2013-3-3,32,23,14,-100,-100,-100,0,0,100,0.00,40.00,0,-999,0,0.00
2013-3-4,32,28,22,-100,-100,-100,0,0,100,0.00,40.00,0,-999,0,0.00
2013-3-5,32,32,29,-100,-100,-100,0,0,100,0.00,40.00,0,-999,0,0.00
2013-3-6,30,28,26,-100,-100,-100,0,0,100,0.00,40.00,0,-999,0,0.00
2013-3-7,36,30,27,-100,-100,-100,0,0,100,0.00,40.00,0,-999,0,0.00
2013-3-8,40,31,21,-100,-100,-100,0,0,100,0.00,40.00,0,-999,0,0.00
2013-3-9,43,39,32,-100,-100,-100,0,0,100,0.00,40.00,0,-999,0,0.00
2013-3-10,59,50,39,-100,-100,-100,0,0,100,0.00,40.00,0,-999,0,0.00
2013-3-11,51,41,33,-100,-100,-100,0,0,100,0.00,40.00,0,-999,0,0.00
2013-3-12,37,32,30,-100,-100,-100,0,0,100,0.00,40.00,0,-999,0,0.00
2013-3-13,32,28,25,-100,-100,-100,0,0,100,0.00,40.00,0,-999,0,0.00
2013-3-14,39,31,22,-100,-100,-100,0,0,100,0.00,40.00,0,-999,0,0.00
2013-3-15,54,39,29,-100,-100,-100,0,0,100,0.00,40.00,0,-999,0,0.00
2013-3-16,42,35,32,-100,-100,-100,0,0,100,0.00,40.00,0,-999,0,0.00
2013-3-17,36,32,29,-100,-100,-100,0,0,100,0.00,40.00,0,-999,0,0.00
2013-3-18,37,31,26,-100,-100,-100,0,0,100,0.00,40.00,0,-999,0,0.00
2013-3-19,37,29,20,-100,-100,-100,0,0,100,0.00,40.00,0,-999,0,0.00
2013-3-20,27,22,17,-100,-100,-100,0,0,100,0.00,40.00,0,-999,0,0.00
2013-3-21,33,21,13,-100,-100,-100,0,0,100,0.00,40.00,0,-999,0,0.00
2013-3-22,43,32,18,-100,-100,-100,0,0,100,0.00,40.00,0,-999,0,0.00
2013-3-23,46,36,27,-100,-100,-100,0,0,100,0.00,40.00,0,-999,0,0.00
2013-3-24,35,30,29,-100,-100,-100,0,0,100,0.00,40.00,0,-999,0,0.00
2013-3-25,34,31,28,-100,-100,-100,0,0,100,0.00,40.00,0,-999,0,0.00
2013-3-26,39,33,28,-100,-100,-100,0,0,100,0.00,40.00,0,-999,0,0.00
2013-3-27,43,37,31,-100,-100,-100,0,0,100,0.00,40.00,0,-999,0,0.00
2013-3-28,50,37,25,-100,-100,-100,0,0,100,0.00,40.00,0,-999,0,0.00
2013-3-29,56,42,32,-100,-100,-100,0,0,100,0.00,40.00,0,-999,0,0.00
2013-3-30,58,46,30,-100,-100,-100,0,0,100,0.00,40.00,0,-999,0,0.00
2013-3-31,62,48,39,-100,-100,-100,0,0,100,0.00,40.00,0,-999,0,0.00